Time;durP1;ratioP1;P1;durP2;ratioP2;P2;SDS_P1;SDS_P2;PMS_P1;PMS_P2;Temp;Humidity;BMP_temperature;BMP_pressure;BME280_temperature;BME280_humidity;BME280_pressure;Samples;Min_cycle;Max_cycle;Signal;HPM_P1;HPM_P2
2021/06/14 00:01:18;;;;;;;8.63;2.58;;;;;;;12.67;100.00;101002.06;713376;1202;113980;-80
2021/06/14 00:16:21;;;;;;;4.65;2.23;;;;;;;12.37;100.00;101000.25;713685;1203;115219;-77
2021/06/14 00:31:24;;;;;;;13.80;4.95;;;;;;;12.28;100.00;101004.47;713676;1205;113958;-79
2021/06/14 00:46:26;;;;;;;9.17;5.23;;;;;;;12.26;100.00;101001.13;713847;1202;115209;-76
2021/06/14 01:01:28;;;;;;;6.87;3.47;;;;;;;12.11;100.00;100988.29;713695;1203;113914;-77
2021/06/14 01:16:47;;;;;;;7.40;3.27;;;;;;;12.13;100.00;100990.81;714012;1202;114570;-79
2021/06/14 01:31:50;;;;;;;6.53;3.48;;;;;;;11.88;100.00;100995.45;713607;1202;114029;-78
2021/06/14 01:46:56;;;;;;;12.20;4.23;;;;;;;11.81;100.00;100996.89;713799;1202;114575;-78
2021/06/14 02:02:02;;;;;;;9.08;4.18;;;;;;;11.55;100.00;100999.05;713775;1203;114229;-78
2021/06/14 02:17:14;;;;;;;9.98;3.83;;;;;;;11.31;100.00;100997.43;713908;1201;115009;-78
2021/06/14 02:32:17;;;;;;;6.43;3.33;;;;;;;11.20;100.00;101000.89;714158;1178;113832;-78
2021/06/14 02:47:19;;;;;;;9.98;4.05;;;;;;;11.21;100.00;101004.37;713632;1202;114091;-79
2021/06/14 03:02:25;;;;;;;11.93;4.30;;;;;;;11.16;100.00;101009.97;713567;1205;113545;-78
2021/06/14 03:17:28;;;;;;;7.67;4.53;;;;;;;11.36;100.00;101011.00;713918;1202;114759;-78
2021/06/14 03:32:32;;;;;;;7.13;3.93;;;;;;;11.46;100.00;101013.75;714062;1202;114583;-79
2021/06/14 03:47:36;;;;;;;10.00;4.00;;;;;;;11.79;100.00;101004.91;714281;1205;113948;-79
2021/06/14 04:02:38;;;;;;;16.08;5.23;;;;;;;12.18;100.00;101016.72;713999;1202;114247;-78
2021/06/14 04:17:41;;;;;;;9.78;4.73;;;;;;;12.55;100.00;101003.09;713208;1183;114260;-77
2021/06/14 04:32:44;;;;;;;10.60;5.00;;;;;;;12.99;100.00;101024.78;715953;1202;114296;-78
2021/06/14 04:47:46;;;;;;;12.98;5.33;;;;;;;13.29;100.00;101044.98;713618;1203;114032;-79
2021/06/14 05:02:49;;;;;;;10.58;5.58;;;;;;;13.61;100.00;101038.69;716496;1165;114197;-78
2021/06/14 05:17:52;;;;;;;10.40;5.50;;;;;;;13.88;100.00;101046.91;713792;1202;114581;-78
2021/06/14 05:32:54;;;;;;;11.75;5.70;;;;;;;14.40;100.00;101060.63;713715;1202;115974;-77
2021/06/14 05:47:57;;;;;;;11.55;5.23;;;;;;;14.80;100.00;101066.69;714274;1202;115746;-75
2021/06/14 06:03:00;;;;;;;16.33;6.83;;;;;;;15.42;100.00;101051.09;714153;1202;114610;-75
2021/06/14 06:18:03;;;;;;;14.50;6.00;;;;;;;15.97;100.00;101066.06;714139;1177;114560;-75
2021/06/14 06:33:08;;;;;;;9.08;5.15;;;;;;;16.52;100.00;101058.87;713840;1206;115770;-76
2021/06/14 06:48:10;;;;;;;10.80;4.95;;;;;;;16.89;100.00;101054.28;714580;1203;114138;-77
2021/06/14 07:03:13;;;;;;;16.55;4.33;;;;;;;17.50;99.76;101048.91;713414;1205;115584;-79
2021/06/14 07:18:15;;;;;;;6.73;3.63;;;;;;;18.20;95.75;101047.67;714190;1177;113866;-79
2021/06/14 07:33:17;;;;;;;10.47;3.67;;;;;;;18.96;92.07;101048.21;714419;1202;115306;-76
2021/06/14 07:48:22;;;;;;;4.55;2.50;;;;;;;19.71;86.93;101048.66;725982;1202;114043;-76
2021/06/14 08:03:24;;;;;;;6.57;2.90;;;;;;;20.75;84.71;101053.46;714436;1203;113922;-74
2021/06/14 08:33:32;;;;;;;6.85;3.08;;;;;;;21.87;77.06;101054.17;714622;1203;114737;-73
2021/06/14 08:48:35;;;;;;;4.43;2.50;;;;;;;22.27;71.86;101046.47;714578;1202;114622;-73
2021/06/14 09:03:37;;;;;;;6.20;2.38;;;;;;;22.79;68.85;101046.21;714366;1203;114959;-73
2021/06/14 09:18:42;;;;;;;2.65;1.65;;;;;;;23.91;64.35;101042.28;713676;1206;113856;-76
2021/06/14 09:34:00;;;;;;;2.50;1.83;;;;;;;23.95;59.81;101033.83;714240;1203;115263;-76
2021/06/14 09:49:07;;;;;;;2.58;1.70;;;;;;;24.38;59.96;101020.80;713908;1205;113916;-76
2021/06/14 10:04:10;;;;;;;3.43;1.90;;;;;;;24.77;56.23;101018.24;713370;1203;114251;-74
2021/06/14 10:19:17;;;;;;;3.27;1.60;;;;;;;25.16;54.86;100999.52;714150;1205;114750;-74
2021/06/14 10:34:21;;;;;;;4.20;2.18;;;;;;;26.08;54.24;100999.92;714366;1202;114795;-76
2021/06/14 10:49:23;;;;;;;2.57;1.90;;;;;;;26.61;52.49;100978.89;717327;1202;114337;-76
2021/06/14 11:04:28;;;;;;;4.25;2.63;;;;;;;26.26;52.79;100963.34;714312;1203;115460;-75
2021/06/14 11:19:36;;;;;;;3.68;2.03;;;;;;;27.99;52.50;100961.15;714333;1203;114897;-75
2021/06/14 11:34:40;;;;;;;5.50;2.20;;;;;;;28.22;51.89;100950.38;714217;1202;114279;-74
2021/06/14 11:49:44;;;;;;;3.57;1.83;;;;;;;27.27;49.74;100945.96;718181;1202;114164;-74
2021/06/14 12:04:52;;;;;;;2.95;1.65;;;;;;;28.19;50.46;100939.23;722292;1176;114845;-72
2021/06/14 12:19:55;;;;;;;2.75;1.70;;;;;;;28.25;49.12;100921.30;715895;1177;114454;-72
2021/06/14 12:34:59;;;;;;;3.17;1.93;;;;;;;28.36;48.59;100915.88;713970;1205;115643;-72
2021/06/14 12:50:03;;;;;;;3.97;1.67;;;;;;;28.80;47.69;100907.30;713753;1206;114254;-77
2021/06/14 13:05:16;;;;;;;2.85;1.70;;;;;;;29.61;48.01;100898.10;713845;1203;115884;-74
2021/06/14 13:20:21;;;;;;;2.75;1.70;;;;;;;29.85;47.18;100879.80;714197;1178;113860;-74
2021/06/14 13:35:24;;;;;;;3.88;1.73;;;;;;;28.73;47.57;100863.42;714013;1203;115677;-74
2021/06/14 13:50:26;;;;;;;5.40;1.98;;;;;;;28.84;46.85;100843.66;714092;1202;114433;-74
2021/06/14 14:05:32;;;;;;;6.03;1.85;;;;;;;29.03;47.74;100841.56;714893;1203;114712;-75
2021/06/14 14:20:34;;;;;;;3.58;2.20;;;;;;;28.73;46.80;100806.75;714104;1205;115377;-74
2021/06/14 14:35:49;;;;;;;2.93;1.95;;;;;;;28.67;46.57;100811.25;714138;1177;113884;-74
2021/06/14 14:50:54;;;;;;;4.95;3.00;;;;;;;28.66;46.88;100792.61;714000;1202;113850;-75
2021/06/14 15:05:57;;;;;;;4.00;1.90;;;;;;;27.99;47.34;100777.83;714168;1178;114031;-75
2021/06/14 15:21:00;;;;;;;3.47;2.03;;;;;;;28.24;47.57;100772.13;714159;1176;113845;-75
2021/06/14 15:36:05;;;;;;;4.10;2.80;;;;;;;28.08;47.16;100764.83;714066;1177;114503;-77
2021/06/14 15:51:07;;;;;;;59.50;42.43;;;;;;;27.82;47.53;100759.73;714189;1202;114609;-76
2021/06/14 16:06:09;;;;;;;12.57;6.63;;;;;;;26.57;47.30;100767.88;714098;1205;114479;-78
2021/06/14 16:21:12;;;;;;;12.93;7.07;;;;;;;26.44;48.01;100747.38;714290;1177;115101;-78
2021/06/14 16:36:14;;;;;;;4.70;2.50;;;;;;;26.39;47.90;100745.39;714178;1204;114994;-76
2021/06/14 16:51:19;;;;;;;5.18;2.90;;;;;;;25.81;48.52;100727.11;714188;1202;115489;-76
2021/06/14 17:06:22;;;;;;;5.58;2.90;;;;;;;25.56;49.64;100730.70;713942;1206;114944;-77
2021/06/14 17:21:24;;;;;;;4.85;2.00;;;;;;;25.25;50.73;100727.90;714149;1202;114695;-77
2021/06/14 17:36:26;;;;;;;5.43;2.63;;;;;;;25.07;52.05;100726.03;714302;1205;115037;-76
2021/06/14 17:51:30;;;;;;;6.75;2.70;;;;;;;24.52;53.04;100715.08;714213;1202;115512;-77
2021/06/14 18:06:34;;;;;;;9.30;5.78;;;;;;;24.18;53.51;100706.46;714080;1202;114294;-75
2021/06/14 18:21:36;;;;;;;8.33;4.63;;;;;;;23.65;54.84;100678.03;714449;1202;113354;-76
2021/06/14 18:36:39;;;;;;;9.53;5.83;;;;;;;22.70;56.72;100677.39;714602;1203;115428;-75
2021/06/14 18:51:41;;;;;;;22.85;17.65;;;;;;;21.98;58.78;100673.56;714329;1203;114081;-75
2021/06/14 19:06:43;;;;;;;8.87;4.03;;;;;;;21.12;61.87;100670.27;714650;1202;114779;-75
2021/06/14 19:21:47;;;;;;;9.37;4.53;;;;;;;20.42;64.18;100694.08;714231;1203;114466;-75
2021/06/14 19:36:49;;;;;;;13.48;5.78;;;;;;;19.72;66.83;100699.83;714849;1203;113978;-76
2021/06/14 19:51:51;;;;;;;20.45;14.90;;;;;;;19.11;70.58;100697.36;713494;1202;115574;-75
2021/06/14 20:06:53;;;;;;;7.30;4.95;;;;;;;18.83;72.93;100695.23;714377;1203;115604;-75
2021/06/14 20:21:55;;;;;;;9.07;4.03;;;;;;;18.31;74.67;100699.46;714440;1205;113824;-75
2021/06/14 20:36:59;;;;;;;13.67;8.83;;;;;;;18.06;77.24;100701.44;714206;1203;116833;-76
2021/06/14 20:52:02;;;;;;;10.48;5.55;;;;;;;17.84;79.51;100710.96;715126;1203;114818;-75
2021/06/14 21:07:04;;;;;;;14.38;7.30;;;;;;;17.28;80.59;100707.31;714382;1202;114338;-74
2021/06/14 21:22:06;;;;;;;13.88;5.83;;;;;;;17.17;82.54;100680.33;714774;1177;113826;-73
2021/06/14 21:37:09;;;;;;;23.73;11.33;;;;;;;16.86;85.84;100676.54;713823;1202;114271;-74
2021/06/14 21:52:11;;;;;;;22.30;11.53;;;;;;;16.68;88.10;100665.30;714342;1202;114160;-73
2021/06/14 22:07:13;;;;;;;25.08;13.08;;;;;;;16.55;89.71;100679.02;713668;1202;115388;-74
2021/06/14 22:22:16;;;;;;;22.45;10.80;;;;;;;16.38;89.98;100679.02;713612;1178;114115;-74
2021/06/14 22:37:19;;;;;;;11.85;7.20;;;;;;;16.21;90.07;100670.23;713523;1203;115128;-75
2021/06/14 22:52:21;;;;;;;12.05;6.65;;;;;;;15.90;89.88;100669.98;714675;1202;114641;-75
2021/06/14 23:07:23;;;;;;;13.73;7.57;;;;;;;15.73;91.10;100661.97;714206;1205;115212;-74
2021/06/14 23:22:26;;;;;;;16.73;8.67;;;;;;;15.74;93.40;100663.61;714095;1202;113857;-74
2021/06/14 23:37:28;;;;;;;13.08;7.30;;;;;;;15.54;91.56;100652.46;713999;1203;113971;-76
2021/06/14 23:52:30;;;;;;;12.00;7.50;;;;;;;15.44;93.11;100649.11;714102;1202;115779;-74
